Time;durP1;ratioP1;P1;durP2;ratioP2;P2;SDS_P1;SDS_P2;PMS_P1;PMS_P2;Temp;Humidity;BMP_temperature;BMP_pressure;BME280_temperature;BME280_humidity;BME280_pressure;Samples;Min_cycle;Max_cycle;Signal;HPM_P1;HPM_P2
2022/04/12 00:00:11;;;;;;;12.13;6.47;;;7.50;99.90;;;;;;5006548;28;20055;-88
2022/04/12 00:03:03;;;;;;;10.07;6.25;;;7.60;99.90;;;;;;5003614;28;20078;-84
2022/04/12 00:05:54;;;;;;;10.18;6.20;;;7.60;99.90;;;;;;5013694;28;20054;-84
2022/04/12 00:08:43;;;;;;;9.90;6.85;;;7.50;99.90;;;;;;5003292;28;20098;-84
2022/04/12 00:11:31;;;;;;;10.95;6.70;;;7.50;99.90;;;;;;5005862;28;20054;-85
2022/04/12 00:14:18;;;;;;;9.32;6.03;;;7.30;99.90;;;;;;5003602;28;20050;-87
2022/04/12 00:20:11;;;;;;;9.90;6.50;;;7.20;99.90;;;;;;5012924;28;20054;-87
2022/04/12 00:22:59;;;;;;;10.63;6.35;;;7.10;99.90;;;;;;5012446;28;20077;-83
2022/04/12 00:25:46;;;;;;;11.15;6.07;;;7.10;99.90;;;;;;5023345;28;20436;-85
2022/04/12 00:28:33;;;;;;;12.73;7.13;;;7.10;99.90;;;;;;5010805;28;20070;-88
2022/04/12 00:31:21;;;;;;;12.45;6.25;;;7.00;99.90;;;;;;5010922;28;20050;-86
2022/04/12 00:34:08;;;;;;;10.20;6.15;;;7.00;99.90;;;;;;5009111;28;20058;-87
2022/04/12 00:36:55;;;;;;;8.68;5.88;;;6.90;99.90;;;;;;5011072;28;20046;-86
2022/04/12 00:39:42;;;;;;;11.77;6.47;;;7.00;99.90;;;;;;5027942;28;20050;-86
2022/04/12 00:42:31;;;;;;;10.20;6.00;;;7.10;99.90;;;;;;5012000;28;20046;-87
2022/04/12 00:45:18;;;;;;;9.10;6.05;;;6.90;99.90;;;;;;5010257;28;20074;-88
2022/04/12 00:48:06;;;;;;;12.35;6.40;;;6.80;99.90;;;;;;5009251;28;20050;-85
2022/04/12 00:50:56;;;;;;;8.90;5.90;;;6.70;99.90;;;;;;5011810;28;20077;-87
2022/04/12 00:53:46;;;;;;;14.30;6.20;;;6.50;99.90;;;;;;5014252;28;20053;-90
2022/04/12 00:56:33;;;;;;;13.05;6.25;;;6.40;99.90;;;;;;5000001;28;20051;-88
2022/04/12 00:59:27;;;;;;;8.80;5.80;;;6.20;99.90;;;;;;5003783;28;20054;-84
2022/04/12 01:02:17;;;;;;;11.70;6.45;;;6.10;99.90;;;;;;5016792;28;20043;-89
2022/04/12 01:05:08;;;;;;;8.90;5.93;;;5.90;99.90;;;;;;5012209;28;20098;-87
2022/04/12 01:07:55;;;;;;;8.57;5.90;;;5.80;99.90;;;;;;5013957;28;20054;-83
2022/04/12 01:10:45;;;;;;;9.30;5.97;;;5.60;99.90;;;;;;5005330;28;20432;-83
2022/04/12 01:13:33;;;;;;;10.38;6.28;;;5.60;99.90;;;;;;5015740;28;20050;-86
2022/04/12 01:16:23;;;;;;;11.38;6.35;;;5.50;99.90;;;;;;5004135;28;20085;-83
2022/04/12 01:19:13;;;;;;;9.40;6.18;;;5.50;99.90;;;;;;4994171;28;20070;-84
2022/04/12 01:22:20;;;;;;;11.57;6.28;;;5.50;99.90;;;;;;5009157;28;20074;-87
2022/04/12 01:25:08;;;;;;;8.35;5.75;;;5.50;99.90;;;;;;5004970;28;20043;-81
2022/04/12 01:27:58;;;;;;;10.55;6.45;;;5.40;99.90;;;;;;5004934;28;20042;-86
2022/04/12 01:30:45;;;;;;;10.88;6.43;;;5.40;99.90;;;;;;5010797;28;20153;-88
2022/04/12 01:33:35;;;;;;;9.20;5.32;;;5.30;99.90;;;;;;5009529;28;20078;-86
2022/04/12 01:36:22;;;;;;;9.30;6.22;;;5.20;99.90;;;;;;5024254;28;20073;-86
2022/04/12 01:39:09;;;;;;;10.43;6.95;;;5.10;99.90;;;;;;5017576;28;20050;-89
2022/04/12 01:41:57;;;;;;;9.85;6.50;;;5.10;99.90;;;;;;5007819;28;20089;-86
2022/04/12 01:44:44;;;;;;;13.80;6.82;;;5.00;99.90;;;;;;5009593;28;20168;-85
2022/04/12 01:47:33;;;;;;;9.35;6.03;;;4.90;99.90;;;;;;5009027;28;20042;-85
2022/04/12 01:50:23;;;;;;;11.13;6.18;;;4.80;99.90;;;;;;5007908;28;20042;-89
2022/04/12 01:53:10;;;;;;;12.18;7.22;;;4.70;99.90;;;;;;5010150;28;20109;-86
2022/04/12 01:55:57;;;;;;;11.88;6.82;;;4.60;99.90;;;;;;5010786;28;20054;-86
2022/04/12 01:58:44;;;;;;;9.77;6.45;;;4.60;99.90;;;;;;5010890;28;20047;-86
2022/04/12 02:01:34;;;;;;;9.52;6.78;;;4.50;99.90;;;;;;5008856;28;20085;-87
2022/04/12 02:04:22;;;;;;;10.63;6.78;;;4.50;99.90;;;;;;4998335;28;20042;-88
2022/04/12 02:07:14;;;;;;;10.20;7.03;;;4.40;99.90;;;;;;5009804;28;20051;-88
2022/04/12 02:10:01;;;;;;;15.57;7.63;;;4.30;99.90;;;;;;5011071;28;20053;-85
2022/04/12 02:12:50;;;;;;;9.30;6.35;;;4.30;99.90;;;;;;5013087;28;20047;-88
2022/04/12 02:15:37;;;;;;;9.13;6.18;;;4.20;99.90;;;;;;5011226;28;20042;-87
2022/04/12 02:18:26;;;;;;;9.68;6.50;;;4.20;99.90;;;;;;5005626;28;20046;-84
2022/04/12 02:21:14;;;;;;;10.40;6.18;;;4.30;99.90;;;;;;4997542;28;20045;-80
2022/04/12 02:24:01;;;;;;;7.82;5.40;;;4.30;99.90;;;;;;5008313;28;20040;-87
2022/04/12 02:26:51;;;;;;;7.43;5.72;;;4.30;99.90;;;;;;5014355;28;20047;-80
2022/04/12 02:29:38;;;;;;;12.68;5.50;;;4.30;99.90;;;;;;5016431;28;20100;-81
2022/04/12 02:32:28;;;;;;;8.73;5.35;;;4.20;99.90;;;;;;5024293;28;21030;-79
2022/04/12 02:35:15;;;;;;;8.40;6.65;;;4.10;99.90;;;;;;4996963;28;20039;-78
2022/04/12 02:38:03;;;;;;;9.77;6.38;;;4.00;99.90;;;;;;4997312;28;20022;-84
2022/04/12 02:40:52;;;;;;;11.07;6.22;;;4.00;99.90;;;;;;5001037;28;20085;-81
2022/04/12 02:43:40;;;;;;;9.10;5.53;;;3.80;99.90;;;;;;5014792;28;20042;-88
2022/04/12 02:46:30;;;;;;;9.57;6.05;;;3.70;99.90;;;;;;5003124;28;20066;-83
2022/04/12 02:49:21;;;;;;;8.35;6.03;;;3.70;99.90;;;;;;5003059;28;20062;-83
2022/04/12 02:52:08;;;;;;;10.90;7.47;;;3.60;99.90;;;;;;5009880;28;20046;-80
2022/04/12 02:54:57;;;;;;;10.48;6.68;;;3.50;99.90;;;;;;5026957;28;20042;-86
2022/04/12 02:57:44;;;;;;;11.90;6.50;;;3.40;99.90;;;;;;5026717;28;20082;-84
2022/04/12 03:00:34;;;;;;;10.75;6.90;;;3.50;99.90;;;;;;5012470;28;20046;-88
2022/04/12 03:03:21;;;;;;;10.15;6.00;;;3.50;99.90;;;;;;5009585;28;20043;-88
2022/04/12 03:06:08;;;;;;;11.23;6.90;;;3.50;99.90;;;;;;5011019;28;20046;-86
2022/04/12 03:08:55;;;;;;;14.07;6.53;;;3.40;99.90;;;;;;5010941;28;20039;-88
2022/04/12 03:11:45;;;;;;;11.68;7.20;;;3.30;99.90;;;;;;5014236;28;20054;-85
2022/04/12 03:14:32;;;;;;;10.18;6.72;;;3.30;99.90;;;;;;5006714;28;20097;-86
2022/04/12 03:17:20;;;;;;;10.45;6.70;;;3.20;99.90;;;;;;5010718;28;20078;-88
2022/04/12 03:20:09;;;;;;;10.63;6.68;;;3.10;99.90;;;;;;5002984;28;20074;-84
2022/04/12 03:22:56;;;;;;;11.90;6.35;;;3.10;99.90;;;;;;5009534;28;20519;-86
2022/04/12 03:25:44;;;;;;;10.25;6.75;;;3.10;99.90;;;;;;4994650;28;20042;-86
2022/04/12 03:28:33;;;;;;;11.05;7.03;;;3.00;99.90;;;;;;5007537;28;20049;-87
2022/04/12 03:31:21;;;;;;;11.07;7.00;;;3.00;99.90;;;;;;4996580;28;20104;-89
2022/04/12 03:34:14;;;;;;;12.05;7.10;;;2.90;99.90;;;;;;5008595;28;20047;-86
2022/04/12 03:37:03;;;;;;;11.80;7.82;;;2.90;99.90;;;;;;5021843;28;20046;-89
2022/04/12 03:39:51;;;;;;;9.60;7.22;;;2.90;99.90;;;;;;5009081;28;20050;-89
2022/04/12 03:42:38;;;;;;;11.27;7.20;;;2.90;99.90;;;;;;4997293;28;20043;-88
2022/04/12 03:45:28;;;;;;;12.00;8.38;;;3.00;99.90;;;;;;5006773;28;20124;-86
2022/04/12 03:48:15;;;;;;;12.75;7.35;;;2.90;99.90;;;;;;4999809;28;20352;-88
2022/04/12 03:51:02;;;;;;;15.60;7.60;;;2.90;99.90;;;;;;5008513;28;20058;-89
2022/04/12 03:53:53;;;;;;;11.13;7.72;;;2.80;99.90;;;;;;4990153;28;20046;-88
2022/04/12 03:56:43;;;;;;;15.00;8.32;;;2.70;99.90;;;;;;5023004;28;23688;-89
2022/04/12 03:59:30;;;;;;;11.80;7.60;;;2.80;99.90;;;;;;5012798;28;20046;-87
2022/04/12 04:02:17;;;;;;;13.00;7.93;;;2.80;99.90;;;;;;5008026;28;20057;-83
2022/04/12 04:05:07;;;;;;;13.07;8.18;;;2.80;99.90;;;;;;5007747;28;20058;-87
2022/04/12 04:07:57;;;;;;;15.07;8.43;;;2.70;99.90;;;;;;5008387;28;20042;-87
2022/04/12 04:10:44;;;;;;;13.00;8.40;;;2.60;99.90;;;;;;5019859;28;20103;-87
2022/04/12 04:13:36;;;;;;;15.48;8.20;;;2.60;99.90;;;;;;5003828;28;20085;-88
2022/04/12 04:16:25;;;;;;;12.10;7.90;;;2.60;99.90;;;;;;5001638;28;20046;-86
2022/04/12 04:19:15;;;;;;;17.05;8.80;;;2.60;99.90;;;;;;5004580;28;20370;-83
2022/04/12 04:22:02;;;;;;;13.18;8.68;;;2.50;99.90;;;;;;5013954;28;20058;-83
2022/04/12 04:24:59;;;;;;;14.40;9.00;;;2.70;99.90;;;;;;5006464;28;20045;-85
2022/04/12 04:27:52;;;;;;;14.43;8.85;;;2.60;99.90;;;;;;5007527;28;20114;-82
2022/04/12 04:30:44;;;;;;;15.98;9.50;;;2.60;99.90;;;;;;5027256;28;20030;-85
2022/04/12 04:41:53;;;;;;;19.67;10.10;;;2.60;99.90;;;;;;5012242;28;20038;-86
2022/04/12 04:44:51;;;;;;;20.95;10.70;;;2.60;99.90;;;;;;4997807;28;20085;-86
2022/04/12 04:47:59;;;;;;;17.13;10.65;;;2.50;99.90;;;;;;5003783;28;20154;-80
2022/04/12 04:50:46;;;;;;;18.95;9.25;;;2.50;99.90;;;;;;5027196;28;20101;-90
2022/04/12 04:53:36;;;;;;;17.20;10.45;;;2.50;99.90;;;;;;5028669;28;20050;-90
2022/04/12 04:56:27;;;;;;;21.80;9.75;;;2.50;99.90;;;;;;5014019;28;20051;-89
2022/04/12 04:59:16;;;;;;;20.98;10.30;;;2.60;99.90;;;;;;5000229;28;20154;-85
2022/04/12 05:02:04;;;;;;;17.52;10.45;;;2.60;99.90;;;;;;5010019;28;20038;-85
2022/04/12 05:04:53;;;;;;;16.60;9.38;;;2.60;99.90;;;;;;5015990;28;20058;-91
2022/04/12 05:07:41;;;;;;;19.92;10.32;;;2.70;99.90;;;;;;5010666;28;20160;-88
2022/04/12 05:10:35;;;;;;;20.17;9.65;;;2.70;99.90;;;;;;4994936;28;20340;-88
2022/04/12 05:13:22;;;;;;;19.35;9.65;;;2.90;99.90;;;;;;5005938;28;20667;-84
2022/04/12 05:16:09;;;;;;;17.65;8.82;;;3.20;99.90;;;;;;5001378;28;20047;-86
2022/04/12 05:18:58;;;;;;;18.83;8.40;;;3.40;99.90;;;;;;5008221;28;20023;-84
2022/04/12 05:21:46;;;;;;;21.60;9.23;;;3.60;99.90;;;;;;5016486;28;20053;-87
2022/04/12 05:24:35;;;;;;;13.50;7.78;;;3.70;99.90;;;;;;5006953;28;20050;-87
2022/04/12 05:27:29;;;;;;;16.00;8.73;;;3.80;99.90;;;;;;5019109;28;20128;-82
2022/04/12 05:30:19;;;;;;;16.25;7.53;;;3.90;99.90;;;;;;4998880;28;20045;-88
2022/04/12 05:33:24;;;;;;;12.57;7.20;;;4.00;99.90;;;;;;4989950;28;20065;-88
2022/04/12 05:37:19;;;;;;;9.70;5.65;;;4.20;99.90;;;;;;4996672;28;20078;-88
2022/04/12 05:40:28;;;;;;;21.10;7.57;;;4.60;99.90;;;;;;4994771;28;20062;-85
2022/04/12 06:00:13;;;;;;;11.20;6.43;;;6.00;99.90;;;;;;5608594;23;20042;-86
2022/04/12 06:03:02;;;;;;;12.82;6.13;;;6.10;99.90;;;;;;5010602;28;20049;-87
2022/04/12 06:05:50;;;;;;;14.05;5.15;;;6.20;99.90;;;;;;5011198;28;20042;-85
2022/04/12 06:08:37;;;;;;;8.75;4.70;;;6.50;99.90;;;;;;5003637;28;20073;-87
2022/04/12 06:11:28;;;;;;;10.55;5.72;;;6.60;99.90;;;;;;5005661;28;20046;-87
2022/04/12 06:14:18;;;;;;;15.95;5.72;;;6.80;99.90;;;;;;5009800;28;20336;-87
2022/04/12 06:17:08;;;;;;;10.35;6.05;;;7.10;99.90;;;;;;5003327;28;20065;-85
2022/04/12 06:20:00;;;;;;;11.90;6.05;;;7.20;99.90;;;;;;5002747;28;20038;-85
2022/04/12 06:22:48;;;;;;;11.32;6.53;;;7.30;99.90;;;;;;5001976;28;20050;-84
2022/04/12 06:25:35;;;;;;;12.27;7.10;;;7.50;99.90;;;;;;5003876;28;20065;-85
2022/04/12 06:28:22;;;;;;;8.57;5.90;;;7.60;99.90;;;;;;5001454;28;20081;-85
2022/04/12 06:31:10;;;;;;;10.85;5.90;;;7.70;99.90;;;;;;5009170;28;20367;-87
2022/04/12 06:33:57;;;;;;;6.53;5.15;;;8.00;99.90;;;;;;4999853;28;20483;-85
2022/04/12 06:36:48;;;;;;;7.57;5.32;;;8.20;99.90;;;;;;5009604;28;20445;-86
2022/04/12 06:39:35;;;;;;;10.32;6.03;;;8.50;99.90;;;;;;5005654;28;20141;-84
2022/04/12 06:42:23;;;;;;;10.10;5.60;;;8.80;99.90;;;;;;5011067;28;20429;-85
2022/04/12 06:45:13;;;;;;;10.80;5.82;;;9.20;99.90;;;;;;5009968;28;20042;-85
2022/04/12 06:48:00;;;;;;;10.68;5.85;;;9.60;99.90;;;;;;5009274;28;20072;-84
2022/04/12 06:50:52;;;;;;;7.05;5.20;;;9.90;99.90;;;;;;5014887;28;20129;-84
2022/04/12 06:53:39;;;;;;;9.25;4.63;;;10.30;98.50;;;;;;5007370;28;20149;-84
2022/04/12 06:56:27;;;;;;;7.80;5.15;;;10.60;95.90;;;;;;5012235;28;20041;-86
2022/04/12 06:59:17;;;;;;;7.70;4.90;;;10.80;94.40;;;;;;5001138;28;20035;-86
2022/04/12 07:02:04;;;;;;;11.50;6.18;;;11.00;92.80;;;;;;5006107;28;20057;-87
2022/04/12 07:04:54;;;;;;;12.27;5.60;;;11.30;95.30;;;;;;5020841;28;20178;-86
2022/04/12 07:07:42;;;;;;;8.00;5.18;;;11.60;95.60;;;;;;5008328;28;20147;-86
2022/04/12 07:10:30;;;;;;;9.80;5.55;;;11.80;93.20;;;;;;5005168;28;20042;-85
2022/04/12 07:13:17;;;;;;;7.93;5.03;;;11.90;93.10;;;;;;5009788;28;20046;-87
2022/04/12 07:16:05;;;;;;;8.70;5.55;;;12.10;91.00;;;;;;5004039;28;20132;-87
2022/04/12 07:19:01;;;;;;;8.07;4.75;;;12.20;88.00;;;;;;5003270;28;20105;-87
2022/04/12 07:21:48;;;;;;;6.63;4.75;;;12.50;90.50;;;;;;5011186;28;20054;-86
2022/04/12 07:24:36;;;;;;;6.93;4.45;;;12.60;88.00;;;;;;5005099;28;20057;-87
2022/04/12 07:27:26;;;;;;;9.30;4.70;;;12.80;82.30;;;;;;5007229;28;20459;-87
2022/04/12 07:30:16;;;;;;;13.93;4.72;;;12.80;82.70;;;;;;5007931;28;20053;-85
2022/04/12 07:33:24;;;;;;;7.30;4.15;;;13.10;81.60;;;;;;5011364;28;20049;-87
2022/04/12 07:36:11;;;;;;;8.07;4.25;;;13.40;82.50;;;;;;5008756;28;20049;-88
2022/04/12 07:38:59;;;;;;;6.70;4.53;;;14.00;79.10;;;;;;5008609;28;20077;-86
2022/04/12 07:41:47;;;;;;;7.70;4.93;;;14.50;75.40;;;;;;5010264;28;20037;-87
2022/04/12 07:44:34;;;;;;;8.57;4.93;;;14.70;71.00;;;;;;5010412;28;20112;-87
2022/04/12 07:47:24;;;;;;;6.63;5.00;;;14.50;71.80;;;;;;5014574;28;20042;-86
2022/04/12 07:50:12;;;;;;;8.30;4.65;;;14.50;71.60;;;;;;5014492;28;20042;-87
2022/04/12 07:53:00;;;;;;;8.23;4.68;;;14.40;71.20;;;;;;5009909;28;20053;-87
2022/04/12 07:55:47;;;;;;;7.65;4.65;;;14.80;71.00;;;;;;5009116;28;20057;-87
2022/04/12 07:58:36;;;;;;;5.22;3.47;;;15.00;70.80;;;;;;5006820;28;20042;-86
2022/04/12 08:01:24;;;;;;;9.20;4.25;;;15.50;70.60;;;;;;5010296;28;20154;-87
2022/04/12 08:04:11;;;;;;;6.03;3.75;;;16.40;63.40;;;;;;5010423;28;20038;-87
2022/04/12 08:06:59;;;;;;;7.47;3.78;;;16.60;63.10;;;;;;5007878;28;20053;-85
2022/04/12 08:09:48;;;;;;;5.78;3.85;;;17.10;64.50;;;;;;5010879;28;20046;-88
2022/04/12 08:12:35;;;;;;;5.60;3.72;;;18.00;57.20;;;;;;5008917;28;20050;-86
2022/04/12 08:15:29;;;;;;;5.43;3.80;;;18.10;52.50;;;;;;5006621;28;20112;-86
2022/04/12 08:18:16;;;;;;;8.23;3.97;;;18.00;54.10;;;;;;5005332;28;20459;-85
2022/04/12 08:21:04;;;;;;;6.25;3.35;;;17.40;55.80;;;;;;5007714;28;20054;-85
2022/04/12 08:23:52;;;;;;;6.22;3.38;;;17.10;54.80;;;;;;5002978;28;20046;-87
2022/04/12 08:26:39;;;;;;;7.50;3.58;;;17.60;57.40;;;;;;5015336;28;20135;-87
2022/04/12 08:29:28;;;;;;;6.00;3.22;;;18.00;52.20;;;;;;5014290;28;20128;-86
2022/04/12 08:32:18;;;;;;;6.63;3.28;;;18.10;51.50;;;;;;5011230;28;20053;-89
2022/04/12 08:35:07;;;;;;;6.68;2.90;;;18.00;51.30;;;;;;5004145;28;20053;-86
2022/04/12 08:37:57;;;;;;;6.03;3.53;;;17.80;53.60;;;;;;5005049;28;20061;-87
2022/04/12 08:40:45;;;;;;;6.50;3.70;;;18.60;53.40;;;;;;5008817;28;20060;-88
2022/04/12 08:43:34;;;;;;;5.25;3.10;;;19.00;53.20;;;;;;5007281;28;20042;-86
2022/04/12 08:46:24;;;;;;;6.53;2.90;;;19.70;55.10;;;;;;5002435;28;20042;-87
2022/04/12 08:49:15;;;;;;;4.95;2.65;;;20.10;48.60;;;;;;5010088;28;20128;-88
2022/04/12 08:52:03;;;;;;;5.50;2.58;;;20.10;46.00;;;;;;5010852;28;20099;-87
2022/04/12 08:54:53;;;;;;;5.28;2.53;;;19.80;48.70;;;;;;5007390;28;20057;-89
2022/04/12 08:58:51;;;;;;;;;;;;;;;;;;;;;
2022/04/12 09:02:58;;;;;;;;;;;;;;;;;;;;;
2022/04/12 09:07:10;;;;;;;;;;;;;;;;;;;;;
2022/04/12 09:10:31;;;;;;;3.45;1.80;;;21.00;46.30;;;;;;4931995;29;20168;-86
2022/04/12 09:13:19;;;;;;;4.60;2.42;;;20.70;45.40;;;;;;4932836;29;20076;-85
2022/04/12 09:16:12;;;;;;;;;;;20.80;46.20;;;;;;4937150;29;20095;-89
2022/04/12 09:19:07;;;;;;;3.30;1.45;;;20.50;42.60;;;;;;4946597;28;19922;-87
2022/04/12 09:21:55;;;;;;;3.33;1.80;;;20.00;42.70;;;;;;4948655;28;20051;-86
2022/04/12 09:25:06;;;;;;;3.25;1.60;;;19.90;42.60;;;;;;4947076;29;20050;-86
2022/04/12 09:27:55;;;;;;;2.50;1.70;;;20.10;43.50;;;;;;4945871;29;20089;-87
2022/04/12 09:30:43;;;;;;;5.43;1.50;;;20.60;42.80;;;;;;4952223;29;20047;-88
2022/04/12 09:33:36;;;;;;;3.45;1.67;;;20.90;39.70;;;;;;5002414;28;20054;-86
2022/04/12 09:36:24;;;;;;;2.47;1.40;;;21.50;39.90;;;;;;5007017;28;20133;-87
2022/04/12 09:39:19;;;;;;;1.67;1.20;;;21.00;39.20;;;;;;5007869;28;20050;-87
2022/04/12 09:42:10;;;;;;;4.25;1.50;;;21.00;40.10;;;;;;5003876;28;20041;-86
2022/04/12 09:45:05;;;;;;;3.13;1.60;;;22.00;39.40;;;;;;5005095;28;20046;-86
2022/04/12 09:47:54;;;;;;;3.05;1.38;;;22.80;38.90;;;;;;5010600;28;20065;-87
2022/04/12 09:51:04;;;;;;;1.90;1.20;;;23.60;36.90;;;;;;5004169;28;20038;-86
2022/04/12 09:53:52;;;;;;;2.45;1.15;;;24.50;33.50;;;;;;5003379;28;20486;-86
2022/04/12 09:56:39;;;;;;;4.70;1.50;;;24.70;33.90;;;;;;5006627;28;20075;-83
2022/04/12 09:59:48;;;;;;;3.58;1.20;;;24.80;36.30;;;;;;5006487;28;20050;-85
2022/04/12 10:02:36;;;;;;;1.95;1.10;;;24.90;31.10;;;;;;5008311;28;20045;-87
2022/04/12 10:05:24;;;;;;;4.20;1.52;;;25.10;33.60;;;;;;5009708;28;20069;-85
2022/04/12 10:08:13;;;;;;;1.77;1.05;;;25.20;34.40;;;;;;5007539;28;20038;-85
2022/04/12 10:11:01;;;;;;;4.25;1.50;;;24.80;32.10;;;;;;5004263;28;20042;-85
2022/04/12 10:13:54;;;;;;;2.90;1.60;;;24.70;36.50;;;;;;5008773;28;20042;-85
2022/04/12 10:16:44;;;;;;;3.60;1.60;;;24.70;32.20;;;;;;4996513;28;20038;-86
2022/04/12 10:19:32;;;;;;;5.47;1.38;;;25.00;32.00;;;;;;5007884;28;20064;-86
2022/04/12 10:22:19;;;;;;;4.13;1.30;;;24.80;35.60;;;;;;5008504;28;20056;-86
2022/04/12 10:25:09;;;;;;;2.35;1.27;;;24.60;31.50;;;;;;5004392;28;20056;-86
2022/04/12 10:27:58;;;;;;;2.60;1.10;;;23.80;31.70;;;;;;5004470;28;20398;-86
2022/04/12 10:30:47;;;;;;;5.47;1.25;;;23.60;34.40;;;;;;5007430;28;20045;-85
2022/04/12 10:33:35;;;;;;;1.38;0.95;;;23.80;33.30;;;;;;5004845;28;20061;-86
2022/04/12 10:36:23;;;;;;;2.22;1.33;;;24.10;32.30;;;;;;5005207;28;20050;-86
2022/04/12 10:39:12;;;;;;;4.05;1.15;;;24.40;37.70;;;;;;5003948;28;20310;-86
2022/04/12 10:42:13;;;;;;;2.97;1.30;;;25.10;34.50;;;;;;5000263;28;20454;-85
2022/04/12 10:45:06;;;;;;;3.15;0.85;;;25.80;31.00;;;;;;5009759;28;20042;-85
2022/04/12 10:47:57;;;;;;;1.88;0.73;;;25.90;30.00;;;;;;5007356;28;20045;-86
2022/04/12 10:50:46;;;;;;;3.20;0.90;;;25.90;30.00;;;;;;5008615;28;20042;-85
2022/04/12 10:53:36;;;;;;;3.20;1.10;;;25.70;29.10;;;;;;5006179;28;20042;-87
2022/04/12 10:56:29;;;;;;;1.77;1.20;;;25.30;32.80;;;;;;5007306;28;20069;-86
2022/04/12 11:00:01;;;;;;;4.38;1.10;;;25.30;31.00;;;;;;5010809;28;20038;-85
2022/04/12 11:03:16;;;;;;;4.65;1.30;;;26.20;33.20;;;;;;4969779;28;20046;-86
2022/04/12 11:06:12;;;;;;;2.92;1.40;;;27.30;30.80;;;;;;4968081;28;20043;-87
2022/04/12 11:09:16;;;;;;;1.50;1.10;;;27.40;29.70;;;;;;5016862;28;20137;-88
2022/04/12 11:12:03;;;;;;;1.80;1.15;;;27.10;33.80;;;;;;5028621;28;20042;-86
2022/04/12 11:15:21;;;;;;;3.15;1.02;;;27.50;31.60;;;;;;5009042;28;20055;-86
2022/04/12 11:18:13;;;;;;;2.00;1.10;;;28.20;30.00;;;;;;5010143;28;20046;-86
2022/04/12 11:21:03;;;;;;;5.10;1.40;;;28.30;29.80;;;;;;5011820;28;20053;-87
2022/04/12 11:24:06;;;;;;;2.80;1.30;;;28.00;32.00;;;;;;5007701;28;20085;-86
2022/04/12 11:27:10;;;;;;;1.75;1.10;;;28.30;29.90;;;;;;5005800;28;20039;-85
2022/04/12 11:29:58;;;;;;;2.47;1.25;;;28.10;30.90;;;;;;5012945;28;20391;-84
2022/04/12 11:32:45;;;;;;;2.67;0.93;;;27.90;27.90;;;;;;5008732;28;20050;-84
2022/04/12 11:35:34;;;;;;;5.18;1.27;;;27.70;29.00;;;;;;5010507;28;20038;-84
2022/04/12 11:38:23;;;;;;;4.07;1.10;;;27.40;29.30;;;;;;5007320;28;20124;-85
2022/04/12 11:41:10;;;;;;;3.13;1.10;;;26.30;33.30;;;;;;5014815;28;20050;-82
2022/04/12 11:43:59;;;;;;;5.25;1.23;;;25.90;31.20;;;;;;5014577;28;20045;-86
2022/04/12 11:46:56;;;;;;;3.35;1.17;;;26.10;30.60;;;;;;5021634;28;20057;-84
2022/04/12 11:49:46;;;;;;;2.05;1.08;;;25.40;33.70;;;;;;5008141;28;20056;-83
2022/04/12 11:52:35;;;;;;;2.28;1.20;;;24.70;34.90;;;;;;5014601;28;20039;-86
2022/04/12 11:55:24;;;;;;;1.80;1.13;;;24.30;33.80;;;;;;5008495;28;20046;-85
2022/04/12 11:58:12;;;;;;;5.75;3.50;;;24.50;36.10;;;;;;5008024;28;20055;-85
2022/04/12 12:01:00;;;;;;;2.65;1.70;;;24.30;36.80;;;;;;5016256;28;20053;-84
2022/04/12 12:03:53;;;;;;;4.07;1.10;;;24.60;37.90;;;;;;5010883;28;20061;-84
2022/04/12 12:06:54;;;;;;;2.10;1.08;;;25.10;36.00;;;;;;5011340;28;20046;-84
2022/04/12 12:09:56;;;;;;;6.50;1.45;;;25.20;32.40;;;;;;5009679;28;20061;-82
2022/04/12 12:12:46;;;;;;;2.58;1.10;;;25.10;32.00;;;;;;5003954;28;20510;-85
2022/04/12 12:15:35;;;;;;;4.10;1.15;;;25.20;35.90;;;;;;5004279;28;20053;-85
2022/04/12 12:18:23;;;;;;;2.13;0.88;;;25.50;31.80;;;;;;5011241;28;20060;-84
2022/04/12 12:21:10;;;;;;;3.38;0.98;;;25.60;31.80;;;;;;5009504;28;20042;-83
2022/04/12 12:23:58;;;;;;;2.92;1.20;;;25.30;33.70;;;;;;5012406;28;20151;-84
2022/04/12 12:26:57;;;;;;;4.07;1.38;;;25.50;35.40;;;;;;5004135;28;20046;-82
2022/04/12 12:29:46;;;;;;;2.38;1.20;;;25.30;35.70;;;;;;5008445;28;20184;-84
2022/04/12 12:32:37;;;;;;;2.03;1.20;;;24.60;36.00;;;;;;5012204;28;20048;-83
2022/04/12 12:35:29;;;;;;;2.72;1.30;;;24.40;35.80;;;;;;5002480;28;20065;-83
2022/04/12 12:38:21;;;;;;;2.20;0.90;;;24.50;35.60;;;;;;5006673;28;20073;-84
2022/04/12 12:41:08;;;;;;;2.05;0.93;;;24.80;36.50;;;;;;5012422;28;20045;-85
2022/04/12 12:44:00;;;;;;;3.92;1.00;;;24.60;36.20;;;;;;5006671;28;20041;-83
2022/04/12 12:46:56;;;;;;;2.78;1.10;;;24.40;35.20;;;;;;5009132;28;20057;-83
2022/04/12 12:49:44;;;;;;;3.35;1.05;;;24.30;36.20;;;;;;4998979;28;20134;-82
2022/04/12 12:52:31;;;;;;;2.70;1.17;;;24.40;34.80;;;;;;5011538;28;20046;-82
2022/04/12 12:55:23;;;;;;;2.63;1.40;;;24.40;37.60;;;;;;5003822;28;20459;-84
2022/04/12 12:58:14;;;;;;;1.73;0.90;;;24.20;35.50;;;;;;5008113;28;20141;-83
2022/04/12 13:01:03;;;;;;;4.03;1.33;;;24.80;38.20;;;;;;5005545;28;20546;-83
2022/04/12 13:04:01;;;;;;;3.08;0.95;;;24.70;35.70;;;;;;5005381;28;20304;-83
2022/04/12 13:07:08;;;;;;;3.13;1.00;;;25.20;32.60;;;;;;5011969;28;20042;-83
2022/04/12 13:10:04;;;;;;;2.40;1.00;;;25.20;33.70;;;;;;5005956;28;20109;-83
2022/04/12 13:12:51;;;;;;;3.35;0.90;;;24.90;35.50;;;;;;5004597;28;20042;-85
2022/04/12 13:15:39;;;;;;;2.80;1.20;;;24.70;35.90;;;;;;5009077;28;20451;-84
2022/04/12 13:18:30;;;;;;;4.20;1.25;;;24.30;36.90;;;;;;5006995;28;20046;-84
2022/04/12 13:21:18;;;;;;;2.53;0.80;;;24.00;36.40;;;;;;5006893;28;20352;-83
2022/04/12 13:24:05;;;;;;;2.78;1.50;;;24.20;36.80;;;;;;5007973;28;20050;-84
2022/04/12 13:26:56;;;;;;;4.47;1.45;;;23.90;37.50;;;;;;5003538;28;20408;-85
2022/04/12 13:29:46;;;;;;;2.90;1.20;;;24.00;38.20;;;;;;5004321;28;20159;-84
2022/04/12 13:32:33;;;;;;;2.25;1.17;;;23.70;37.90;;;;;;5008329;28;20063;-84
2022/04/12 13:35:26;;;;;;;3.13;1.00;;;24.00;36.70;;;;;;5018292;28;20048;-83
2022/04/12 13:38:16;;;;;;;2.95;0.93;;;23.60;38.60;;;;;;5017175;28;20046;-84
2022/04/12 13:41:03;;;;;;;5.78;1.30;;;23.40;36.40;;;;;;5007965;28;20096;-83
2022/04/12 13:43:51;;;;;;;3.67;1.40;;;23.50;39.60;;;;;;5009049;28;20464;-83
2022/04/12 13:46:43;;;;;;;3.53;1.45;;;23.10;40.00;;;;;;5009465;28;20053;-84
2022/04/12 13:49:34;;;;;;;2.10;1.30;;;23.00;39.40;;;;;;5002253;28;20065;-85
2022/04/12 13:52:24;;;;;;;4.97;1.05;;;23.10;39.40;;;;;;5005591;28;20357;-83
2022/04/12 13:55:12;;;;;;;4.78;1.38;;;23.40;40.00;;;;;;5001826;28;20081;-83
2022/04/12 13:58:00;;;;;;;6.15;1.17;;;23.50;40.30;;;;;;5007805;28;20313;-82
2022/04/12 14:00:50;;;;;;;7.72;1.60;;;23.60;39.40;;;;;;5004710;28;20126;-82
2022/04/12 14:03:38;;;;;;;1.33;0.95;;;23.60;39.00;;;;;;5006862;28;20149;-84
2022/04/12 14:06:26;;;;;;;3.05;1.20;;;23.60;39.70;;;;;;5000648;28;20652;-84
2022/04/12 14:09:14;;;;;;;1.85;1.05;;;23.30;39.80;;;;;;5005381;28;20332;-84
2022/04/12 14:12:04;;;;;;;2.28;1.02;;;23.50;40.50;;;;;;5007245;28;20410;-83
2022/04/12 14:14:54;;;;;;;3.33;1.00;;;23.40;40.40;;;;;;5007014;28;20395;-83
2022/04/12 14:17:42;;;;;;;1.77;1.10;;;23.30;39.90;;;;;;5006291;28;20084;-83
2022/04/12 14:20:50;;;;;;;4.38;1.63;;;23.40;37.30;;;;;;5009984;28;20045;-83
2022/04/12 14:23:39;;;;;;;4.85;1.20;;;23.50;40.80;;;;;;5007037;28;20050;-83
2022/04/12 14:26:29;;;;;;;6.13;1.40;;;23.40;40.30;;;;;;5004785;28;20052;-83
2022/04/12 14:29:18;;;;;;;5.38;1.40;;;23.70;40.50;;;;;;5001870;28;20038;-82
2022/04/12 14:32:06;;;;;;;4.75;1.40;;;23.70;39.90;;;;;;5004306;28;20080;-84
2022/04/12 14:34:55;;;;;;;3.60;1.35;;;23.60;39.70;;;;;;5004481;28;20084;-84
2022/04/12 14:37:44;;;;;;;2.17;1.45;;;23.60;41.50;;;;;;5000630;28;20053;-84
2022/04/12 14:40:31;;;;;;;1.98;1.23;;;23.40;40.60;;;;;;5006718;28;20053;-84
2022/04/12 14:43:19;;;;;;;2.65;1.25;;;23.60;39.70;;;;;;5001637;28;20132;-84
2022/04/12 14:46:07;;;;;;;6.57;1.00;;;23.50;40.20;;;;;;5005251;28;20046;-85
2022/04/12 14:48:56;;;;;;;2.70;1.13;;;23.30;40.40;;;;;;5007973;28;20081;-88
2022/04/12 14:51:43;;;;;;;5.25;2.30;;;23.30;39.20;;;;;;5024053;28;20125;-83
2022/04/12 14:54:30;;;;;;;2.65;1.75;;;22.90;39.10;;;;;;5014436;28;20050;-82
2022/04/12 14:57:18;;;;;;;3.40;0.90;;;23.00;40.30;;;;;;5008995;28;20061;-85
2022/04/12 15:00:07;;;;;;;4.45;1.08;;;23.00;40.60;;;;;;5008827;28;20054;-85
2022/04/12 15:02:57;;;;;;;6.88;1.08;;;22.80;40.50;;;;;;5018199;28;20042;-87
2022/04/12 15:05:44;;;;;;;5.28;1.20;;;22.80;40.10;;;;;;5005531;28;20444;-89
2022/04/12 15:08:32;;;;;;;4.15;1.23;;;22.70;39.50;;;;;;5032705;28;20034;-86
2022/04/12 15:11:19;;;;;;;1.90;0.90;;;22.50;40.40;;;;;;5016756;28;20042;-86
2022/04/12 15:14:11;;;;;;;1.85;0.88;;;22.50;40.60;;;;;;5015037;28;20046;-86
2022/04/12 15:16:58;;;;;;;2.95;0.98;;;22.30;40.80;;;;;;5017649;28;20157;-88
2022/04/12 15:19:46;;;;;;;5.22;1.00;;;22.40;41.60;;;;;;5009533;28;20064;-88
2022/04/12 15:22:36;;;;;;;3.13;1.40;;;22.30;41.60;;;;;;5015507;28;20061;-87